| time (UTC) | temp F | wind direction | speed MPH | gust MPH | rain 1hr in | rain 24hr in | rain mn in | humidity % | barometer mb |
| 20260507161525 | 68 | 172 | 0.0 | 0.0 | 0.05 | 2.04 | 2.05 | 88 | 1010.7 |
| 20260507161027 | 68 | 172 | 0.0 | 0.0 | 0.06 | 2.04 | 2.05 | 88 | 1010.7 |
| 20260507160534 | 68 | 172 | 0.0 | 0.0 | 0.07 | 2.04 | 2.05 | 88 | 1010.4 |
| 20260507160042 | 67 | 172 | 0.0 | 0.0 | 0.08 | 2.04 | 2.05 | 88 | 1010.6 |
| 20260507155537 | 67 | 172 | 0.0 | 0.0 | 0.09 | 2.04 | 2.05 | 88 | 1010.9 |
| 20260507155030 | 67 | 172 | 0.0 | 0.0 | 0.10 | 2.04 | 2.05 | 88 | 1010.9 |
| 20260507154537 | 67 | 172 | 0.0 | 0.0 | 0.11 | 2.03 | 2.04 | 88 | 1011.1 |
| 20260507154030 | 67 | 172 | 0.0 | 0.0 | 0.12 | 2.03 | 2.04 | 88 | 1011.0 |
| 20260507153537 | 66 | 172 | 0.0 | 0.0 | 0.12 | 2.02 | 2.03 | 88 | 1011.1 |
| 20260507153027 | 66 | 172 | 0.0 | 0.0 | 0.14 | 2.02 | 2.03 | 88 | 1011.3 |
| 20260507152534 | 66 | 172 | 0.0 | 0.0 | 0.14 | 2.01 | 2.02 | 88 | 1011.5 |
| 20260507152042 | 66 | 172 | 0.0 | 0.0 | 0.15 | 2.00 | 2.01 | 88 | 1011.5 |
| 20260507151549 | 66 | 172 | 0.0 | 0.0 | 0.15 | 1.99 | 2.00 | 88 | 1011.4 |
| 20260507151025 | 65 | 172 | 0.0 | 0.0 | 0.15 | 1.98 | 1.99 | 88 | 1011.3 |
| 20260507150525 | 65 | 172 | 0.0 | 0.0 | 0.15 | 1.97 | 1.98 | 88 | 1011.1 |
| 20260507150025 | 65 | 172 | 0.0 | 0.0 | 0.16 | 1.96 | 1.97 | 88 | 1011.2 |
| 20260507145525 | 65 | 172 | 0.0 | 0.0 | 0.17 | 1.95 | 1.96 | 88 | 1011.0 |
| 20260507145025 | 65 | 172 | 0.0 | 0.0 | 0.17 | 1.94 | 1.95 | 88 | 1010.9 |
| 20260507144525 | 65 | 172 | 0.0 | 0.0 | 0.17 | 1.92 | 1.93 | 88 | 1011.3 |
| 20260507144025 | 65 | 172 | 0.0 | 0.0 | 0.17 | 1.91 | 1.92 | 88 | 1011.4 |
| 20260507143525 | 65 | 172 | 0.0 | 0.0 | 0.18 | 1.90 | 1.91 | 88 | 1011.6 |
| 20260507143030 | 65 | 172 | 0.0 | 0.0 | 0.17 | 1.88 | 1.89 | 88 | 1011.7 |
| 20260507142537 | 65 | 172 | 0.0 | 0.0 | 0.18 | 1.87 | 1.88 | 88 | 1011.2 |
| 20260507142025 | 65 | 172 | 0.0 | 0.0 | 0.18 | 1.85 | 1.86 | 88 | 1011.3 |
| 20260507141525 | 65 | 172 | 0.0 | 0.0 | 0.19 | 1.84 | 1.85 | 88 | 1011.1 |
| 20260507140852 | 65 | 172 | 0.0 | 0.0 | 0.20 | 1.83 | 1.83 | 88 | 1010.4 |
| 20260507140352 | 65 | 172 | 0.0 | 0.0 | 0.20 | 1.81 | 1.81 | 88 | 1010.6 |
| 20260507135852 | 65 | 172 | 0.0 | 0.0 | 0.21 | 1.80 | 1.80 | 88 | 1010.9 |
| 20260507135352 | 65 | 172 | 0.0 | 0.0 | 0.20 | 1.78 | 1.78 | 88 | 1010.6 |
| 20260507134856 | 65 | 172 | 0.0 | 0.0 | 0.21 | 1.77 | 1.77 | 88 | 1010.9 |
| 20260507134403 | 64 | 172 | 0.0 | 0.0 | 0.20 | 1.75 | 1.75 | 88 | 1011.3 |
| 20260507133910 | 64 | 172 | 0.0 | 0.0 | 0.19 | 1.73 | 1.73 | 88 | 1011.3 |
| 20260507133418 | 64 | 172 | 0.0 | 0.0 | 0.19 | 1.72 | 1.72 | 88 | 1010.9 |
| 20260507132902 | 64 | 172 | 0.0 | 0.0 | 0.17 | 1.70 | 1.70 | 88 | 1010.8 |
| 20260507132409 | 64 | 172 | 0.0 | 0.0 | 0.16 | 1.68 | 1.68 | 88 | 1010.6 |
| 20260507131906 | 64 | 172 | 0.0 | 0.0 | 0.16 | 1.67 | 1.67 | 88 | 1010.9 |
| 20260507131352 | 64 | 172 | 0.0 | 0.0 | 0.15 | 1.65 | 1.65 | 88 | 1011.3 |
| 20260507130852 | 64 | 172 | 0.0 | 0.0 | 0.14 | 1.63 | 1.63 | 88 | 1011.6 |
| 20260507130352 | 64 | 172 | 0.0 | 0.0 | 0.13 | 1.61 | 1.61 | 88 | 1011.7 |
| 20260507125852 | 64 | 172 | 0.0 | 0.0 | 0.12 | 1.59 | 1.59 | 88 | 1011.7 |
| 20260507125352 | 64 | 172 | 0.0 | 0.0 | 0.12 | 1.58 | 1.58 | 88 | 1011.9 |
| 20260507124852 | 64 | 172 | 0.0 | 0.0 | 0.11 | 1.56 | 1.56 | 88 | 1011.8 |
| 20260507124356 | 64 | 172 | 0.0 | 0.0 | 0.12 | 1.55 | 1.55 | 88 | 1011.6 |
| 20260507123904 | 64 | 172 | 0.0 | 0.0 | 0.11 | 1.54 | 1.54 | 88 | 1011.2 |
| 20260507123357 | 64 | 172 | 0.0 | 0.0 | 0.12 | 1.53 | 1.53 | 88 | 1010.7 |
| 20260507122904 | 64 | 172 | 0.0 | 0.0 | 0.14 | 1.53 | 1.53 | 88 | 1010.5 |
| 20260507122352 | 64 | 172 | 0.0 | 0.0 | 0.13 | 1.52 | 1.52 | 88 | 1010.4 |
| 20260507121858 | 64 | 172 | 0.0 | 0.0 | 0.14 | 1.51 | 1.51 | 88 | 1010.5 |
| 20260507121406 | 64 | 172 | 0.0 | 0.0 | 0.13 | 1.50 | 1.50 | 88 | 1010.5 |
| 20260507120901 | 64 | 172 | 0.0 | 0.0 | 0.14 | 1.49 | 1.49 | 88 | 1010.4 |
| 20260507120409 | 64 | 172 | 0.0 | 0.0 | 0.14 | 1.48 | 1.48 | 88 | 1010.2 |
| 20260507115904 | 64 | 172 | 0.0 | 0.0 | 0.14 | 1.47 | 1.47 | 88 | 1010.2 |
| 20260507115357 | 64 | 172 | 0.0 | 0.0 | 0.14 | 1.46 | 1.46 | 88 | 1010.2 |
| 20260507114904 | 64 | 172 | 0.0 | 0.0 | 0.14 | 1.45 | 1.45 | 88 | 1010.0 |
| 20260507114352 | 64 | 172 | 0.0 | 0.0 | 0.13 | 1.43 | 1.43 | 88 | 1010.2 |
| 20260507113852 | 64 | 172 | 0.0 | 2.0 | 0.13 | 1.43 | 1.43 | 88 | 1010.0 |
| 20260507113352 | 64 | 172 | 0.0 | 5.0 | 0.12 | 1.41 | 1.41 | 87 | 1010.2 |
| 20260507112856 | 64 | 172 | 0.0 | 5.0 | 0.10 | 1.39 | 1.39 | 87 | 1010.7 |
| 20260507112404 | 64 | 172 | 0.0 | 0.0 | 0.11 | 1.39 | 1.39 | 87 | 1010.4 |
| 20260507111852 | 64 | 172 | 0.0 | 0.0 | 0.09 | 1.37 | 1.37 | 87 | 1009.8 |
| 20260507111352 | 64 | 172 | 0.0 | 0.0 | 0.10 | 1.37 | 1.37 | 87 | 1009.4 |
| 20260507110852 | 64 | 172 | 0.0 | 0.0 | 0.08 | 1.35 | 1.35 | 87 | 1009.1 |
| 20260507110352 | 64 | 172 | 0.0 | 0.0 | 0.07 | 1.34 | 1.34 | 88 | 1009.2 |
| 20260507105852 | 64 | 172 | 0.0 | 0.0 | 0.06 | 1.33 | 1.33 | 87 | 1009.2 |
| 20260507105352 | 64 | 172 | 0.0 | 0.0 | 0.05 | 1.32 | 1.32 | 87 | 1009.4 |
| 20260507104857 | 64 | 172 | 0.0 | 0.0 | 0.04 | 1.31 | 1.31 | 87 | 1009.7 |
| 20260507104404 | 64 | 172 | 0.0 | 0.0 | 0.03 | 1.30 | 1.30 | 87 | 1009.5 |
| 20260507103852 | 64 | 172 | 0.0 | 0.0 | 0.03 | 1.30 | 1.30 | 87 | 1009.5 |
| 20260507103027 | 64 | 172 | 0.0 | 0.0 | 0.02 | 1.29 | 1.29 | 87 | 1009.7 |
| 20260507102527 | 64 | 172 | 0.0 | 0.0 | 0.01 | 1.28 | 1.28 | 87 | 1009.7 |
| 20260507102027 | 64 | 172 | 0.0 | 0.0 | 0.01 | 1.28 | 1.28 | 87 | 1010.0 |
| 20260507101532 | 64 | 172 | 0.0 | 0.0 | 0.01 | 1.28 | 1.28 | 87 | 1010.1 |
| 20260507101039 | 64 | 172 | 0.0 | 0.0 | 0.00 | 1.27 | 1.27 | 87 | 1010.4 |
| 20260507100527 | 64 | 172 | 0.0 | 0.0 | 0.00 | 1.27 | 1.27 | 87 | 1010.4 |
| 20260507100027 | 64 | 172 | 0.0 | 0.0 | 0.00 | 1.27 | 1.27 | 87 | 1010.4 |
| 20260507095527 | 64 | 172 | 0.0 | 0.0 | 0.01 | 1.27 | 1.27 | 87 | 1010.5 |
| 20260507095027 | 64 | 172 | 0.0 | 0.0 | 0.02 | 1.27 | 1.27 | 87 | 1010.5 |
| 20260507094527 | 64 | 172 | 0.0 | 0.0 | 0.03 | 1.27 | 1.27 | 87 | 1010.4 |
| 20260507094028 | 64 | 172 | 0.0 | 0.0 | 0.03 | 1.27 | 1.27 | 87 | 1010.5 |
| 20260507093527 | 64 | 172 | 0.0 | 0.0 | 0.04 | 1.27 | 1.27 | 87 | 1010.6 |
| 20260507093032 | 64 | 172 | 0.0 | 0.0 | 0.05 | 1.27 | 1.27 | 87 | 1010.7 |
| 20260507092539 | 64 | 172 | 0.0 | 0.0 | 0.05 | 1.27 | 1.27 | 87 | 1010.8 |
| 20260507092027 | 64 | 172 | 0.0 | 0.0 | 0.05 | 1.27 | 1.27 | 87 | 1010.8 |
| 20260507091527 | 64 | 172 | 0.0 | 0.0 | 0.05 | 1.27 | 1.27 | 87 | 1010.9 |
| 20260507091033 | 64 | 172 | 0.0 | 0.0 | 0.05 | 1.27 | 1.27 | 87 | 1011.0 |
| 20260507090541 | 64 | 172 | 0.0 | 0.0 | 0.05 | 1.27 | 1.27 | 87 | 1010.9 |
| 20260507090036 | 64 | 172 | 0.0 | 0.0 | 0.05 | 1.27 | 1.27 | 87 | 1011.0 |
| 20260507085544 | 64 | 172 | 0.0 | 0.0 | 0.04 | 1.26 | 1.26 | 87 | 1010.8 |
| 20260507085051 | 64 | 172 | 0.0 | 0.0 | 0.03 | 1.25 | 1.25 | 87 | 1010.7 |
| 20260507084527 | 64 | 172 | 0.0 | 0.0 | 0.02 | 1.24 | 1.24 | 87 | 1010.8 |
| 20260507084027 | 64 | 172 | 0.0 | 0.0 | 0.02 | 1.24 | 1.24 | 87 | 1011.0 |
| 20260507083527 | 64 | 172 | 0.0 | 0.0 | 0.01 | 1.23 | 1.23 | 87 | 1011.0 |
| 20260507083027 | 64 | 172 | 0.0 | 0.0 | 0.00 | 1.22 | 1.22 | 87 | 1011.2 |
| 20260507082527 | 64 | 172 | 0.0 | 0.0 | 0.00 | 1.22 | 1.22 | 87 | 1011.4 |
| 20260507082031 | 64 | 172 | 0.0 | 0.0 | 0.00 | 1.22 | 1.22 | 87 | 1011.4 |
| 20260507081539 | 64 | 172 | 0.0 | 0.0 | 0.01 | 1.22 | 1.22 | 87 | 1011.4 |
| 20260507081027 | 64 | 172 | 0.0 | 0.0 | 0.01 | 1.22 | 1.22 | 87 | 1011.4 |
| 20260507080531 | 64 | 172 | 0.0 | 0.0 | 0.02 | 1.22 | 1.22 | 87 | 1011.6 |
| 20260507080039 | 64 | 172 | 0.0 | 0.0 | 0.03 | 1.22 | 1.22 | 87 | 1011.7 |
| 20260507075527 | 64 | 172 | 0.0 | 0.0 | 0.04 | 1.22 | 1.22 | 87 | 1011.6 |
| 20260507075027 | 64 | 172 | 0.0 | 0.0 | 0.06 | 1.22 | 1.22 | 87 | 1011.3 |
| 20260507074532 | 64 | 172 | 0.0 | 0.0 | 0.07 | 1.22 | 1.22 | 87 | 1011.2 |
| 20260507074039 | 64 | 172 | 0.0 | 0.0 | 0.08 | 1.22 | 1.22 | 87 | 1011.1 |
| 20260507073531 | 65 | 172 | 0.0 | 0.0 | 0.10 | 1.22 | 1.22 | 87 | 1011.1 |
| 20260507073039 | 65 | 172 | 0.0 | 0.0 | 0.11 | 1.22 | 1.22 | 87 | 1011.2 |
| 20260507072527 | 65 | 172 | 0.0 | 0.0 | 0.13 | 1.22 | 1.22 | 87 | 1011.0 |
| 20260507072027 | 65 | 172 | 0.0 | 0.0 | 0.15 | 1.22 | 1.22 | 87 | 1011.0 |
| 20260507071528 | 65 | 172 | 0.0 | 0.0 | 0.16 | 1.21 | 1.21 | 87 | 1011.1 |
| 20260507071036 | 65 | 172 | 0.0 | 0.0 | 0.18 | 1.21 | 1.21 | 87 | 1011.1 |
| 20260507070544 | 65 | 172 | 0.0 | 0.0 | 0.18 | 1.20 | 1.20 | 87 | 1011.1 |
| 20260507070039 | 65 | 172 | 0.0 | 0.0 | 0.19 | 1.19 | 1.19 | 87 | 1011.3 |
| 20260507065531 | 65 | 172 | 0.0 | 0.0 | 0.19 | 1.18 | 1.18 | 87 | 1011.7 |
| 20260507065039 | 65 | 172 | 0.0 | 0.0 | 0.19 | 1.16 | 1.16 | 87 | 1011.9 |
| 20260507064527 | 65 | 172 | 0.0 | 0.0 | 0.20 | 1.15 | 1.15 | 87 | 1012.1 |
| 20260507064027 | 65 | 172 | 0.0 | 0.0 | 0.20 | 1.14 | 1.14 | 87 | 1012.0 |
| 20260507063527 | 65 | 172 | 0.0 | 0.0 | 0.19 | 1.12 | 1.12 | 87 | 1011.9 |
| 20260507063027 | 65 | 172 | 0.0 | 0.0 | 0.19 | 1.11 | 1.11 | 87 | 1012.5 |
| 20260507062527 | 65 | 172 | 0.0 | 0.0 | 0.17 | 1.09 | 1.09 | 87 | 1012.3 |
| 20260507062028 | 65 | 172 | 0.0 | 0.0 | 0.16 | 1.07 | 1.07 | 87 | 1012.3 |
| 20260507061535 | 65 | 172 | 0.0 | 0.0 | 0.14 | 1.05 | 1.05 | 87 | 1012.6 |
| 20260507061043 | 65 | 172 | 0.0 | 0.0 | 0.13 | 1.03 | 1.03 | 87 | 1012.9 |
| 20260507060539 | 65 | 172 | 0.0 | 0.0 | 0.12 | 1.02 | 1.02 | 87 | 1012.8 |
| 20260507060033 | 66 | 172 | 0.0 | 0.0 | 0.10 | 1.00 | 1.00 | 87 | 1013.1 |
| 20260507055541 | 66 | 172 | 0.0 | 0.0 | 0.09 | 0.99 | 0.99 | 87 | 1013.1 |
| 20260507055048 | 66 | 172 | 0.0 | 0.0 | 0.07 | 0.97 | 0.97 | 87 | 1013.0 |
| 20260507054556 | 66 | 172 | 0.0 | 0.0 | 0.05 | 0.95 | 0.95 | 87 | 1013.3 |
| 20260507054051 | 66 | 172 | 0.0 | 0.0 | 0.04 | 0.94 | 0.94 | 87 | 1013.1 |
| 20260507053527 | 66 | 172 | 0.0 | 0.0 | 0.04 | 0.93 | 0.93 | 87 | 1013.1 |
| 20260507053027 | 66 | 172 | 0.0 | 0.0 | 0.03 | 0.92 | 0.92 | 87 | 1013.3 |
| 20260507052527 | 66 | 172 | 0.0 | 0.0 | 0.04 | 0.92 | 0.92 | 87 | 1013.1 |
| 20260507052032 | 66 | 172 | 0.0 | 0.0 | 0.04 | 0.91 | 0.91 | 87 | 1013.0 |
| 20260507051539 | 66 | 172 | 0.0 | 0.0 | 0.05 | 0.91 | 0.91 | 87 | 1013.1 |
| 20260507051047 | 66 | 172 | 0.0 | 0.0 | 0.04 | 0.90 | 0.90 | 87 | 1012.7 |
| 20260507050555 | 66 | 172 | 0.0 | 0.0 | 0.04 | 0.90 | 0.90 | 87 | 1012.6 |
| 20260507045610 | 66 | 172 | 0.0 | 0.0 | 0.04 | 0.90 | 0.90 | 87 | 1012.6 |
| 20260507045105 | 66 | 172 | 0.0 | 0.0 | 0.05 | 0.90 | 0.90 | 87 | 1012.6 |
| 20260507044613 | 66 | 172 | 0.0 | 0.0 | 0.05 | 0.90 | 0.90 | 87 | 1012.7 |
| 20260507044103 | 66 | 172 | 0.0 | 0.0 | 0.07 | 0.90 | 0.90 | 87 | 1012.8 |
| 20260507043531 | 66 | 172 | 0.0 | 0.0 | 0.07 | 0.89 | 0.89 | 87 | 1012.7 |
| 20260507043039 | 66 | 172 | 0.0 | 0.0 | 0.09 | 0.89 | 0.89 | 87 | 1013.0 |
| 20260507042527 | 66 | 172 | 0.0 | 0.0 | 0.09 | 0.88 | 0.88 | 87 | 1013.1 |
| 20260507042027 | 66 | 172 | 0.0 | 0.0 | 0.10 | 0.87 | 0.87 | 86 | 1013.2 |
| 20260507041531 | 66 | 172 | 0.0 | 0.0 | 0.11 | 0.86 | 0.86 | 86 | 1013.2 |
| 20260507041039 | 66 | 172 | 0.0 | 0.0 | 0.12 | 0.86 | 0.86 | 86 | 1013.2 |
| 20260507040533 | 66 | 172 | 0.0 | 0.0 | 0.14 | 0.86 | 0.86 | 86 | 1013.2 |
| 20260507040040 | 66 | 172 | 0.0 | 0.0 | 0.16 | 0.86 | 0.86 | 86 | 1013.0 |
| 20260507035548 | 66 | 172 | 0.0 | 0.0 | 0.19 | 0.86 | 0.86 | 86 | 1012.9 |
| 20260507035043 | 66 | 172 | 0.0 | 0.0 | 0.20 | 0.85 | 0.85 | 86 | 1013.0 |
| 20260507034539 | 66 | 172 | 0.0 | 0.0 | 0.23 | 0.85 | 0.85 | 86 | 1013.2 |
| 20260507034031 | 66 | 172 | 0.0 | 0.0 | 0.23 | 0.83 | 0.83 | 86 | 1013.1 |
| 20260507033539 | 66 | 172 | 0.0 | 0.0 | 0.25 | 0.82 | 0.82 | 86 | 1012.8 |
| 20260507033027 | 66 | 172 | 0.0 | 0.0 | 0.25 | 0.80 | 0.80 | 86 | 1013.0 |
| 20260507032527 | 66 | 172 | 0.0 | 0.0 | 0.27 | 0.79 | 0.79 | 86 | 1013.1 |
| 20260507032027 | 66 | 172 | 0.0 | 0.0 | 0.28 | 0.77 | 0.77 | 86 | 1013.4 |
| 20260507031527 | 66 | 172 | 0.0 | 0.0 | 0.28 | 0.75 | 0.75 | 86 | 1013.4 |
| 20260507031027 | 66 | 172 | 0.0 | 0.0 | 0.31 | 0.74 | 0.74 | 86 | 1013.6 |
| 20260507030527 | 66 | 172 | 0.0 | 0.0 | 0.31 | 0.72 | 0.72 | 86 | 1013.7 |
| 20260507030027 | 66 | 172 | 0.0 | 0.0 | 0.33 | 0.70 | 0.70 | 86 | 1013.8 |
| 20260507025527 | 66 | 172 | 0.0 | 0.0 | 0.32 | 0.67 | 0.67 | 86 | 1013.7 |
| 20260507025027 | 66 | 172 | 0.0 | 0.0 | 0.32 | 0.65 | 0.65 | 86 | 1013.6 |
| 20260507024527 | 66 | 172 | 0.0 | 0.0 | 0.31 | 0.62 | 0.62 | 85 | 1013.8 |
| 20260507024027 | 66 | 172 | 0.0 | 0.0 | 0.31 | 0.60 | 0.60 | 85 | 1014.3 |
| 20260507023152 | 66 | 172 | 0.0 | 0.0 | 0.30 | 0.55 | 0.55 | 85 | 1013.2 |
| 20260507022652 | 66 | 172 | 0.0 | 0.0 | 0.29 | 0.53 | 0.53 | 85 | 1013.6 |
| 20260507022152 | 66 | 172 | 0.0 | 0.0 | 0.28 | 0.50 | 0.50 | 85 | 1013.8 |
| 20260507021652 | 66 | 172 | 0.0 | 0.0 | 0.27 | 0.47 | 0.47 | 85 | 1013.8 |
| 20260507021152 | 66 | 172 | 0.0 | 0.0 | 0.27 | 0.45 | 0.45 | 84 | 1014.3 |
| 20260507020652 | 67 | 172 | 0.0 | 0.0 | 0.26 | 0.42 | 0.42 | 84 | 1013.5 |
| 20260507020152 | 67 | 172 | 0.0 | 0.0 | 0.24 | 0.39 | 0.39 | 84 | 1013.0 |
| 20260507015652 | 67 | 172 | 0.0 | 0.0 | 0.24 | 0.36 | 0.36 | 83 | 1013.5 |
| 20260507015152 | 67 | 172 | 0.0 | 0.0 | 0.24 | 0.34 | 0.34 | 83 | 1013.5 |
| 20260507014652 | 68 | 172 | 0.0 | 0.0 | 0.24 | 0.32 | 0.32 | 83 | 1013.0 |
| 20260507014152 | 68 | 172 | 0.0 | 0.0 | 0.23 | 0.30 | 0.30 | 83 | 1013.0 |
| 20260507013657 | 68 | 172 | 0.0 | 0.0 | 0.22 | 0.27 | 0.27 | 82 | 1013.2 |
| 20260507013204 | 69 | 172 | 0.0 | 0.0 | 0.21 | 0.25 | 0.25 | 82 | 1013.2 |
| 20260507012657 | 69 | 172 | 0.0 | 0.0 | 0.21 | 0.24 | 0.24 | 82 | 1012.9 |
| 20260507012204 | 70 | 172 | 0.0 | 0.0 | 0.21 | 0.22 | 0.22 | 82 | 1013.2 |
| 20260507011425 | 71 | 172 | 0.0 | 0.0 | 0.19 | 0.19 | 0.19 | 82 | 1013.2 |
| 20260507010925 | 71 | 172 | 0.0 | 0.0 | 0.17 | 0.17 | 0.17 | 82 | 1013.0 |
| 20260507010425 | 72 | 172 | 0.0 | 0.0 | 0.15 | 0.15 | 0.15 | 81 | 1013.1 |
| 20260507005925 | 72 | 172 | 0.0 | 0.0 | 0.14 | 0.14 | 0.14 | 80 | 1013.0 |
| 20260507005425 | 73 | 172 | 0.0 | 0.0 | 0.12 | 0.12 | 0.12 | 79 | 1012.9 |
| 20260507004925 | 74 | 172 | 0.0 | 0.0 | 0.09 | 0.09 | 0.09 | 78 | 1013.2 |
| 20260507004425 | 74 | 172 | 0.0 | 1.0 | 0.07 | 0.07 | 0.07 | 77 | 1013.3 |
| 20260507003925 | 76 | 172 | 0.0 | 1.0 | 0.06 | 0.06 | 0.06 | 75 | 1012.6 |
| 20260507003425 | 77 | 172 | 0.0 | 0.0 | 0.05 | 0.05 | 0.05 | 72 | 1012.3 |
| 20260507002925 | 78 | 172 | 0.0 | 0.0 | 0.03 | 0.03 | 0.03 | 71 | 1012.1 |
| 20260507002425 | 79 | 172 | 0.0 | 0.0 | 0.02 | 0.02 | 0.02 | 69 | 1012.0 |
| 20260507001925 | 80 | 172 | 0.0 | 0.0 | 0.01 | 0.01 | 0.01 | 68 | 1011.4 |
| 20260507001425 | 81 | 172 | 0.0 | 0.0 | 0.00 | 0.00 | 0.00 | 57 | 1011.1 |
| 20260507000925 | 81 | 172 | 0.0 | 0.0 | 0.00 | 0.00 | 0.00 | 57 | 1010.9 |
| 20260507000427 | 81 | 172 | 0.0 | 0.0 | 0.00 | 0.00 | 0.00 | 56 | 1010.8 |
| 20260506235930 | 81 | 172 | 0.0 | 0.0 | 0.00 | 0.00 | 0.00 | 56 | 1010.8 |
| 20260506235437 | 81 | 172 | 0.0 | 0.0 | 0.00 | 0.00 | 0.00 | 56 | 1010.8 |
| 20260506234925 | 81 | 172 | 0.0 | 0.0 | 0.00 | 0.00 | 0.00 | 55 | 1011.2 |
| 20260506234425 | 82 | 172 | 0.0 | 0.0 | 0.00 | 0.00 | 0.00 | 55 | 1011.4 |
| 20260506233925 | 82 | 172 | 0.0 | 0.0 | 0.00 | 0.00 | 0.00 | 55 | 1011.3 |
| 20260506233429 | 82 | 172 | 0.0 | 0.0 | 0.00 | 0.00 | 0.00 | 54 | 1011.3 |
| 20260506232937 | 82 | 172 | 0.0 | 0.0 | 0.00 | 0.00 | 0.00 | 54 | 1011.3 |
| 20260506232425 | 82 | 172 | 0.0 | 0.0 | 0.00 | 0.00 | 0.00 | 54 | 1011.6 |
| 20260506231925 | 82 | 172 | 0.0 | 1.0 | 0.00 | 0.00 | 0.00 | 53 | 1011.7 |
| 20260506231425 | 82 | 172 | 0.0 | 1.0 | 0.00 | 0.00 | 0.00 | 53 | 1011.8 |
| 20260506230925 | 83 | 172 | 0.0 | 0.0 | 0.00 | 0.00 | 0.00 | 53 | 1011.6 |
| 20260506230425 | 83 | 172 | 0.0 | 0.0 | 0.00 | 0.00 | 0.00 | 52 | 1011.6 |
| 20260506225925 | 83 | 172 | 0.0 | 0.0 | 0.00 | 0.00 | 0.00 | 52 | 1011.7 |
| 20260506225425 | 83 | 172 | 0.0 | 0.0 | 0.00 | 0.00 | 0.00 | 52 | 1011.7 |
| 20260506224925 | 83 | 172 | 0.0 | 0.0 | 0.00 | 0.00 | 0.00 | 52 | 1011.8 |
| 20260506224425 | 83 | 172 | 0.0 | 0.0 | 0.00 | 0.00 | 0.00 | 51 | 1011.7 |
| 20260506223925 | 83 | 172 | 0.0 | 0.0 | 0.00 | 0.00 | 0.00 | 52 | 1011.6 |
| 20260506223425 | 83 | 172 | 0.0 | 0.0 | 0.00 | 0.00 | 0.00 | 51 | 1011.5 |
| 20260506222925 | 84 | 172 | 0.0 | 0.0 | 0.00 | 0.00 | 0.00 | 51 | 1011.4 |
| 20260506222425 | 84 | 172 | 0.0 | 0.0 | 0.00 | 0.00 | 0.00 | 51 | 1011.5 |
| 20260506221926 | 84 | 172 | 0.0 | 0.0 | 0.00 | 0.00 | 0.00 | 51 | 1011.4 |
| 20260506221425 | 84 | 172 | 0.0 | 0.0 | 0.00 | 0.00 | 0.00 | 51 | 1011.4 |
| 20260506220925 | 84 | 172 | 0.0 | 0.0 | 0.00 | 0.00 | 0.00 | 50 | 1011.4 |
| 20260506220425 | 84 | 172 | 0.0 | 1.0 | 0.00 | 0.00 | 0.00 | 52 | 1011.3 |
| 20260506215925 | 85 | 172 | 0.0 | 1.0 | 0.00 | 0.00 | 0.00 | 51 | 1011.3 |
| 20260506215430 | 85 | 172 | 0.0 | 0.0 | 0.00 | 0.00 | 0.00 | 49 | 1011.4 |
| 20260506214937 | 85 | 172 | 0.0 | 0.0 | 0.00 | 0.00 | 0.00 | 48 | 1011.6 |
| 20260506214425 | 85 | 172 | 0.0 | 0.0 | 0.00 | 0.00 | 0.00 | 47 | 1011.6 |
| 20260506213925 | 85 | 172 | 0.0 | 1.0 | 0.00 | 0.00 | 0.00 | 48 | 1011.6 |
| 20260506213425 | 85 | 172 | 0.0 | 1.0 | 0.00 | 0.00 | 0.00 | 48 | 1011.6 |
| 20260506212925 | 85 | 172 | 0.0 | 0.0 | 0.00 | 0.00 | 0.00 | 48 | 1011.7 |
| 20260506212425 | 86 | 172 | 0.0 | 0.0 | 0.00 | 0.00 | 0.00 | 47 | 1011.7 |
| 20260506211925 | 86 | 172 | 0.0 | 1.0 | 0.00 | 0.00 | 0.00 | 45 | 1011.8 |
| 20260506211430 | 86 | 172 | 0.0 | 1.0 | 0.00 | 0.00 | 0.00 | 44 | 1012.0 |
| 20260506210937 | 86 | 172 | 0.0 | 1.0 | 0.00 | 0.00 | 0.00 | 44 | 1012.1 |
| 20260506210425 | 86 | 172 | 0.0 | 0.0 | 0.00 | 0.00 | 0.00 | 44 | 1012.1 |
| 20260506205930 | 86 | 172 | 0.0 | 0.0 | 0.00 | 0.00 | 0.00 | 46 | 1012.1 |
| 20260506205437 | 86 | 172 | 0.0 | 1.0 | 0.00 | 0.00 | 0.00 | 44 | 1012.3 |
| 20260506204925 | 86 | 172 | 0.0 | 1.0 | 0.00 | 0.00 | 0.00 | 42 | 1012.3 |
| 20260506204427 | 86 | 172 | 0.0 | 1.0 | 0.00 | 0.00 | 0.00 | 42 | 1012.3 |
| 20260506203934 | 86 | 172 | 0.0 | 0.0 | 0.00 | 0.00 | 0.00 | 44 | 1012.1 |
| 20260506203442 | 87 | 172 | 0.0 | 0.0 | 0.00 | 0.00 | 0.00 | 45 | 1012.1 |
| 20260506202949 | 87 | 172 | 0.0 | 0.0 | 0.00 | 0.00 | 0.00 | 44 | 1012.0 |
| 20260506202425 | 87 | 172 | 0.0 | 0.0 | 0.00 | 0.00 | 0.00 | 44 | 1012.2 |
| 20260506201909 | 87 | 172 | 0.0 | 1.0 | 0.00 | 0.00 | 0.00 | 44 | 1012.4 |
| 20260506201404 | 87 | 172 | 0.0 | 0.0 | 0.00 | 0.00 | 0.00 | 44 | 1012.5 |
| 20260506200857 | 88 | 172 | 0.0 | 1.0 | 0.00 | 0.00 | 0.00 | 46 | 1012.7 |
| 20260506200404 | 88 | 172 | 0.0 | 1.0 | 0.00 | 0.00 | 0.00 | 45 | 1012.8 |
| 20260506195852 | 88 | 172 | 0.0 | 0.0 | 0.00 | 0.00 | 0.00 | 43 | 1013.0 |
| 20260506195352 | 89 | 172 | 0.0 | 0.0 | 0.00 | 0.00 | 0.00 | 45 | 1013.0 |
| 20260506194852 | 89 | 172 | 0.0 | 0.0 | 0.00 | 0.00 | 0.00 | 40 | 1013.0 |
| 20260506194354 | 90 | 172 | 0.0 | 0.0 | 0.00 | 0.00 | 0.00 | 41 | 1013.1 |
| 20260506193901 | 90 | 172 | 0.0 | 1.0 | 0.00 | 0.00 | 0.00 | 40 | 1013.2 |
| 20260506193409 | 90 | 172 | 0.0 | 1.0 | 0.00 | 0.00 | 0.00 | 39 | 1013.2 |
| 20260506192916 | 91 | 172 | 0.0 | 0.0 | 0.00 | 0.00 | 0.00 | 40 | 1013.2 |
| 20260506192352 | 91 | 172 | 0.0 | 0.0 | 0.00 | 0.00 | 0.00 | 41 | 1013.4 |
| 20260506191852 | 90 | 172 | 0.0 | 1.0 | 0.00 | 0.00 | 0.00 | 40 | 1013.5 |
| 20260506191357 | 90 | 172 | 0.0 | 1.0 | 0.00 | 0.00 | 0.00 | 40 | 1013.6 |
| 20260506190904 | 90 | 172 | 0.0 | 0.0 | 0.00 | 0.00 | 0.00 | 40 | 1013.8 |
| 20260506190352 | 90 | 172 | 0.0 | 0.0 | 0.00 | 0.00 | 0.00 | 40 | 1013.8 |
| 20260506185852 | 90 | 172 | 0.0 | 1.0 | 0.00 | 0.00 | 0.00 | 42 | 1013.9 |
| 20260506185357 | 90 | 172 | 0.0 | 1.0 | 0.00 | 0.00 | 0.00 | 41 | 1014.0 |
| 20260506184904 | 90 | 172 | 0.0 | 0.0 | 0.00 | 0.00 | 0.00 | 39 | 1013.9 |
| 20260506184352 | 90 | 172 | 0.0 | 1.0 | 0.00 | 0.00 | 0.00 | 40 | 1014.0 |
| 20260506183852 | 90 | 172 | 0.0 | 1.0 | 0.00 | 0.00 | 0.00 | 41 | 1014.0 |
| 20260506183352 | 90 | 172 | 0.0 | 1.0 | 0.00 | 0.00 | 0.00 | 40 | 1013.8 |
| 20260506182852 | 90 | 172 | 0.0 | 2.0 | 0.00 | 0.00 | 0.00 | 41 | 1013.5 |
| 20260506182354 | 90 | 172 | 0.0 | 2.0 | 0.00 | 0.00 | 0.00 | 42 | 1013.4 |
| 20260506181901 | 90 | 172 | 0.0 | 0.0 | 0.00 | 0.00 | 0.00 | 41 | 1013.4 |
| 20260506181409 | 90 | 172 | 0.0 | 0.0 | 0.00 | 0.00 | 0.00 | 42 | 1013.8 |
| 20260506180904 | 89 | 172 | 0.0 | 0.0 | 0.00 | 0.00 | 0.00 | 44 | 1013.9 |
| 20260506180352 | 88 | 172 | 0.0 | 0.0 | 0.00 | 0.00 | 0.00 | 46 | 1014.0 |
| 20260506175852 | 87 | 172 | 0.0 | 0.0 | 0.00 | 0.00 | 0.00 | 45 | 1014.2 |
| 20260506175354 | 87 | 172 | 0.0 | 0.0 | 0.00 | 0.00 | 0.00 | 47 | 1014.0 |
| 20260506174901 | 86 | 172 | 0.0 | 0.0 | 0.00 | 0.00 | 0.00 | 48 | 1014.0 |
| 20260506174409 | 85 | 172 | 0.0 | 0.0 | 0.00 | 0.00 | 0.00 | 49 | 1014.0 |
| 20260506173916 | 85 | 172 | 0.0 | 0.0 | 0.00 | 0.00 | 0.00 | 50 | 1014.0 |
| 20260506173352 | 84 | 172 | 0.0 | 0.0 | 0.00 | 0.00 | 0.00 | 52 | 1014.1 |
| 20260506172852 | 83 | 172 | 0.0 | 0.0 | 0.00 | 0.00 | 0.00 | 53 | 1014.2 |
| 20260506172352 | 83 | 172 | 0.0 | 1.0 | 0.00 | 0.00 | 0.00 | 51 | 1014.3 |
| 20260506171852 | 82 | 172 | 0.0 | 1.0 | 0.00 | 0.00 | 0.00 | 54 | 1014.2 |
| 20260506171352 | 81 | 172 | 0.0 | 1.0 | 0.00 | 0.00 | 0.00 | 53 | 1014.5 |
| 20260506170852 | 81 | 172 | 0.0 | 1.0 | 0.00 | 0.00 | 0.00 | 58 | 1014.4 |
| 20260506170352 | 79 | 172 | 0.0 | 3.0 | 0.00 | 0.00 | 0.00 | 58 | 1014.0 |
| 20260506165852 | 78 | 172 | 0.0 | 3.0 | 0.00 | 0.00 | 0.00 | 61 | 1014.4 |
| 20260506165352 | 77 | 172 | 0.0 | 0.0 | 0.00 | 0.00 | 0.00 | 59 | 1014.9 |
| 20260506164852 | 77 | 172 | 0.0 | 0.0 | 0.00 | 0.00 | 0.00 | 60 | 1015.1 |
| 20260506164352 | 77 | 172 | 0.0 | 0.0 | 0.00 | 0.00 | 0.00 | 60 | 1015.3 |
| 20260506163852 | 77 | 172 | 0.0 | 1.0 | 0.00 | 0.00 | 0.00 | 60 | 1015.4 |
| 20260506163352 | 77 | 172 | 0.0 | 1.0 | 0.00 | 0.00 | 0.00 | 61 | 1015.5 |
| 20260506162856 | 77 | 172 | 0.0 | 0.0 | 0.00 | 0.00 | 0.00 | 60 | 1015.7 |
| 20260506162404 | 77 | 172 | 0.0 | 0.0 | 0.00 | 0.00 | 0.00 | 61 | 1015.6 |
| 20260506161852 | 76 | 172 | 0.0 | 0.0 | 0.00 | 0.00 | 0.00 | 63 | 1015.6 |